sensor_id;sensor_type;location;lat;lon;timestamp;pressure;altitude;pressure_sealevel;temperature;humidity
12664;BME280;6396;58.490;15.528;2023-07-22T00:00:30;99930.19;;;14.15;100.00
12664;BME280;6396;58.490;15.528;2023-07-22T00:02:56;99720.88;;;12.72;100.00
12664;BME280;6396;58.490;15.528;2023-07-22T00:05:23;99958.56;;;13.79;100.00
12664;BME280;6396;58.490;15.528;2023-07-22T00:07:50;99928.78;;;14.08;100.00
12664;BME280;6396;58.490;15.528;2023-07-22T00:10:19;99641.41;;;12.19;100.00
12664;BME280;6396;58.490;15.528;2023-07-22T00:12:46;99891.78;;;13.88;100.00
12664;BME280;6396;58.490;15.528;2023-07-22T00:15:13;99868.22;;;13.82;100.00
12664;BME280;6396;58.490;15.528;2023-07-22T00:17:40;99748.31;;;12.88;100.00
12664;BME280;6396;58.490;15.528;2023-07-22T00:20:08;99938.47;;;14.09;100.00
12664;BME280;6396;58.490;15.528;2023-07-22T00:22:36;99955.97;;;14.13;100.00
12664;BME280;6396;58.490;15.528;2023-07-22T00:25:06;99919.50;;;13.99;100.00
12664;BME280;6396;58.490;15.528;2023-07-22T00:27:37;99788.47;;;13.16;100.00
12664;BME280;6396;58.490;15.528;2023-07-22T00:30:05;99968.91;;;14.19;100.00
12664;BME280;6396;58.490;15.528;2023-07-22T00:32:32;99944.69;;;14.25;100.00
12664;BME280;6396;58.490;15.528;2023-07-22T00:34:59;99880.22;;;13.72;100.00
12664;BME280;6396;58.490;15.528;2023-07-22T00:37:25;99564.13;;;12.13;100.00
12664;BME280;6396;58.490;15.528;2023-07-22T00:39:52;99782.63;;;13.27;100.00
12664;BME280;6396;58.490;15.528;2023-07-22T00:42:20;99937.91;;;14.36;100.00
12664;BME280;6396;58.490;15.528;2023-07-22T00:44:49;99736.16;;;13.03;100.00
12664;BME280;6396;58.490;15.528;2023-07-22T00:47:17;99934.25;;;14.22;100.00
12664;BME280;6396;58.490;15.528;2023-07-22T00:49:46;99963.03;;;14.31;100.00
12664;BME280;6396;58.490;15.528;2023-07-22T00:52:13;99885.75;;;13.84;100.00
12664;BME280;6396;58.490;15.528;2023-07-22T00:54:41;99551.94;;;12.09;100.00
12664;BME280;6396;58.490;15.528;2023-07-22T00:57:09;99773.19;;;13.21;100.00
12664;BME280;6396;58.490;15.528;2023-07-22T00:59:37;99794.00;;;13.46;100.00
12664;BME280;6396;58.490;15.528;2023-07-22T01:02:06;99888.66;;;13.97;100.00
12664;BME280;6396;58.490;15.528;2023-07-22T01:04:33;99886.63;;;14.02;100.00
12664;BME280;6396;58.490;15.528;2023-07-22T01:07:01;99854.88;;;13.66;100.00
12664;BME280;6396;58.490;15.528;2023-07-22T01:09:34;99825.53;;;13.52;100.00
12664;BME280;6396;58.490;15.528;2023-07-22T01:12:02;99925.34;;;14.23;100.00
12664;BME280;6396;58.490;15.528;2023-07-22T01:14:31;99934.72;;;14.30;100.00
12664;BME280;6396;58.490;15.528;2023-07-22T01:16:59;99673.19;;;12.72;100.00
12664;BME280;6396;58.490;15.528;2023-07-22T01:19:28;99894.75;;;13.99;100.00
12664;BME280;6396;58.490;15.528;2023-07-22T01:21:56;99657.44;;;12.52;100.00
12664;BME280;6396;58.490;15.528;2023-07-22T01:24:25;99753.72;;;13.22;100.00
12664;BME280;6396;58.490;15.528;2023-07-22T01:26:52;99786.78;;;13.32;100.00
12664;BME280;6396;58.490;15.528;2023-07-22T01:29:19;99832.53;;;13.70;100.00
12664;BME280;6396;58.490;15.528;2023-07-22T01:31:47;99855.09;;;13.79;100.00
12664;BME280;6396;58.490;15.528;2023-07-22T01:34:15;99769.81;;;13.35;100.00
12664;BME280;6396;58.490;15.528;2023-07-22T01:36:42;99844.00;;;13.88;100.00
12664;BME280;6396;58.490;15.528;2023-07-22T01:39:09;99948.00;;;14.30;100.00
12664;BME280;6396;58.490;15.528;2023-07-22T01:41:37;99933.81;;;14.31;100.00
12664;BME280;6396;58.490;15.528;2023-07-22T01:44:04;99728.81;;;12.72;100.00
12664;BME280;6396;58.490;15.528;2023-07-22T01:46:31;99873.72;;;13.94;100.00
12664;BME280;6396;58.490;15.528;2023-07-22T01:48:58;99782.41;;;13.49;100.00
12664;BME280;6396;58.490;15.528;2023-07-22T01:51:25;99736.63;;;13.11;100.00
12664;BME280;6396;58.490;15.528;2023-07-22T01:53:51;99804.31;;;13.52;100.00
12664;BME280;6396;58.490;15.528;2023-07-22T01:56:18;99783.72;;;13.40;100.00
12664;BME280;6396;58.490;15.528;2023-07-22T01:58:47;99932.59;;;14.36;100.00
12664;BME280;6396;58.490;15.528;2023-07-22T02:01:14;99940.75;;;14.33;100.00
12664;BME280;6396;58.490;15.528;2023-07-22T02:03:41;99819.84;;;13.77;100.00
12664;BME280;6396;58.490;15.528;2023-07-22T02:06:08;99935.03;;;14.41;100.00
12664;BME280;6396;58.490;15.528;2023-07-22T02:08:35;99885.06;;;14.15;100.00
12664;BME280;6396;58.490;15.528;2023-07-22T02:11:03;99925.50;;;14.37;100.00
12664;BME280;6396;58.490;15.528;2023-07-22T02:13:31;99760.81;;;13.22;100.00
12664;BME280;6396;58.490;15.528;2023-07-22T02:16:00;99835.53;;;13.64;100.00
12664;BME280;6396;58.490;15.528;2023-07-22T02:18:27;99874.03;;;14.05;100.00
12664;BME280;6396;58.490;15.528;2023-07-22T02:20:54;99925.66;;;14.17;100.00
12664;BME280;6396;58.490;15.528;2023-07-22T02:23:21;99947.34;;;14.25;100.00
12664;BME280;6396;58.490;15.528;2023-07-22T02:25:48;99935.44;;;14.33;100.00
12664;BME280;6396;58.490;15.528;2023-07-22T02:28:15;99754.94;;;13.32;100.00
12664;BME280;6396;58.490;15.528;2023-07-22T02:30:46;99885.28;;;14.10;100.00
12664;BME280;6396;58.490;15.528;2023-07-22T02:33:14;99704.03;;;13.09;100.00
12664;BME280;6396;58.490;15.528;2023-07-22T02:35:41;99892.88;;;14.01;100.00
12664;BME280;6396;58.490;15.528;2023-07-22T02:38:08;99854.16;;;13.80;100.00
12664;BME280;6396;58.490;15.528;2023-07-22T02:40:35;99949.41;;;14.37;100.00
12664;BME280;6396;58.490;15.528;2023-07-22T02:43:02;99943.31;;;14.35;100.00
12664;BME280;6396;58.490;15.528;2023-07-22T02:45:30;99639.78;;;12.70;100.00
12664;BME280;6396;58.490;15.528;2023-07-22T02:47:57;99894.19;;;14.09;100.00
12664;BME280;6396;58.490;15.528;2023-07-22T02:50:25;99925.66;;;14.34;100.00
12664;BME280;6396;58.490;15.528;2023-07-22T02:52:52;99824.97;;;13.80;100.00
12664;BME280;6396;58.490;15.528;2023-07-22T02:55:19;99940.66;;;14.35;100.00
12664;BME280;6396;58.490;15.528;2023-07-22T02:57:46;99880.84;;;13.94;100.00
12664;BME280;6396;58.490;15.528;2023-07-22T03:00:14;99741.47;;;13.20;100.00
12664;BME280;6396;58.490;15.528;2023-07-22T03:02:45;99857.28;;;13.71;100.00
12664;BME280;6396;58.490;15.528;2023-07-22T03:05:12;99755.66;;;13.00;100.00
12664;BME280;6396;58.490;15.528;2023-07-22T03:07:40;99927.47;;;14.16;100.00
12664;BME280;6396;58.490;15.528;2023-07-22T03:10:08;99936.13;;;14.20;100.00
12664;BME280;6396;58.490;15.528;2023-07-22T03:12:36;99924.00;;;14.14;100.00
12664;BME280;6396;58.490;15.528;2023-07-22T03:15:03;99883.19;;;13.83;100.00
12664;BME280;6396;58.490;15.528;2023-07-22T03:17:33;99901.31;;;13.75;100.00
12664;BME280;6396;58.490;15.528;2023-07-22T03:20:00;99793.06;;;13.13;100.00
12664;BME280;6396;58.490;15.528;2023-07-22T03:22:27;99872.75;;;13.63;100.00
12664;BME280;6396;58.490;15.528;2023-07-22T03:24:56;99811.09;;;13.23;100.00
12664;BME280;6396;58.490;15.528;2023-07-22T03:27:22;99819.50;;;13.31;100.00
12664;BME280;6396;58.490;15.528;2023-07-22T03:29:49;99819.59;;;13.30;100.00
12664;BME280;6396;58.490;15.528;2023-07-22T03:32:16;99897.16;;;13.52;100.00
12664;BME280;6396;58.490;15.528;2023-07-22T03:34:43;99687.63;;;12.31;100.00
12664;BME280;6396;58.490;15.528;2023-07-22T03:37:09;99962.59;;;13.87;100.00
12664;BME280;6396;58.490;15.528;2023-07-22T03:39:36;99686.50;;;12.35;100.00
12664;BME280;6396;58.490;15.528;2023-07-22T03:42:05;99755.81;;;12.80;100.00
12664;BME280;6396;58.490;15.528;2023-07-22T03:44:32;99926.28;;;13.88;100.00
12664;BME280;6396;58.490;15.528;2023-07-22T03:46:59;99669.47;;;12.41;100.00
12664;BME280;6396;58.490;15.528;2023-07-22T03:49:26;99921.59;;;13.93;100.00
12664;BME280;6396;58.490;15.528;2023-07-22T03:51:53;99731.06;;;12.63;100.00
12664;BME280;6396;58.490;15.528;2023-07-22T03:54:19;99875.00;;;13.53;100.00
12664;BME280;6396;58.490;15.528;2023-07-22T03:56:46;99984.44;;;13.92;100.00
12664;BME280;6396;58.490;15.528;2023-07-22T03:59:14;99894.34;;;13.72;100.00
12664;BME280;6396;58.490;15.528;2023-07-22T04:01:41;99958.75;;;13.93;100.00
12664;BME280;6396;58.490;15.528;2023-07-22T04:04:08;99907.63;;;13.72;100.00
12664;BME280;6396;58.490;15.528;2023-07-22T04:06:35;99724.13;;;12.60;100.00
12664;BME280;6396;58.490;15.528;2023-07-22T04:09:02;99902.56;;;13.68;100.00
12664;BME280;6396;58.490;15.528;2023-07-22T04:11:29;99903.38;;;13.51;100.00
12664;BME280;6396;58.490;15.528;2023-07-22T04:13:55;99923.31;;;13.77;100.00
12664;BME280;6396;58.490;15.528;2023-07-22T04:16:24;99916.69;;;13.85;100.00
12664;BME280;6396;58.490;15.528;2023-07-22T04:18:50;99951.19;;;13.85;100.00
12664;BME280;6396;58.490;15.528;2023-07-22T04:21:17;99712.75;;;12.58;100.00
12664;BME280;6396;58.490;15.528;2023-07-22T04:23:44;99887.31;;;13.54;100.00
12664;BME280;6396;58.490;15.528;2023-07-22T04:26:11;99816.84;;;12.96;100.00
12664;BME280;6396;58.490;15.528;2023-07-22T04:28:37;99749.28;;;12.69;100.00
12664;BME280;6396;58.490;15.528;2023-07-22T04:31:04;99922.38;;;13.78;100.00
12664;BME280;6396;58.490;15.528;2023-07-22T04:33:35;99733.19;;;12.73;100.00
12664;BME280;6396;58.490;15.528;2023-07-22T04:36:01;99758.13;;;12.86;100.00
12664;BME280;6396;58.490;15.528;2023-07-22T04:38:28;99748.84;;;12.78;100.00
12664;BME280;6396;58.490;15.528;2023-07-22T04:40:55;99778.44;;;12.87;100.00
12664;BME280;6396;58.490;15.528;2023-07-22T04:43:22;99889.41;;;13.65;100.00
12664;BME280;6396;58.490;15.528;2023-07-22T04:45:50;99796.13;;;13.22;100.00
12664;BME280;6396;58.490;15.528;2023-07-22T04:48:21;99923.31;;;13.94;100.00
12664;BME280;6396;58.490;15.528;2023-07-22T04:50:50;99923.16;;;13.97;100.00
12664;BME280;6396;58.490;15.528;2023-07-22T04:53:17;99935.09;;;14.05;100.00
12664;BME280;6396;58.490;15.528;2023-07-22T04:55:44;99795.47;;;13.17;100.00
12664;BME280;6396;58.490;15.528;2023-07-22T04:58:11;99578.88;;;12.00;100.00
12664;BME280;6396;58.490;15.528;2023-07-22T05:00:38;99657.09;;;12.41;100.00
12664;BME280;6396;58.490;15.528;2023-07-22T05:03:05;99635.06;;;12.41;100.00
12664;BME280;6396;58.490;15.528;2023-07-22T05:05:32;99856.59;;;13.67;100.00
12664;BME280;6396;58.490;15.528;2023-07-22T05:08:00;99873.69;;;13.96;100.00
12664;BME280;6396;58.490;15.528;2023-07-22T05:10:27;99927.53;;;14.32;100.00
12664;BME280;6396;58.490;15.528;2023-07-22T05:12:54;99631.25;;;12.46;100.00
12664;BME280;6396;58.490;15.528;2023-07-22T05:15:22;99883.97;;;13.85;100.00
12664;BME280;6396;58.490;15.528;2023-07-22T05:17:50;99727.50;;;13.16;100.00
12664;BME280;6396;58.490;15.528;2023-07-22T05:20:17;99843.38;;;13.83;100.00
12664;BME280;6396;58.490;15.528;2023-07-22T05:22:44;99716.91;;;13.16;100.00
12664;BME280;6396;58.490;15.528;2023-07-22T05:25:12;99911.94;;;14.59;100.00
12664;BME280;6396;58.490;15.528;2023-07-22T05:27:39;99918.78;;;14.63;100.00
12664;BME280;6396;58.490;15.528;2023-07-22T05:30:07;99867.88;;;14.22;100.00
12664;BME280;6396;58.490;15.528;2023-07-22T05:32:34;99678.84;;;13.34;100.00
12664;BME280;6396;58.490;15.528;2023-07-22T05:35:01;99842.09;;;14.24;100.00
12664;BME280;6396;58.490;15.528;2023-07-22T05:37:30;99939.94;;;14.81;100.00
12664;BME280;6396;58.490;15.528;2023-07-22T05:39:57;99929.91;;;14.86;100.00
12664;BME280;6396;58.490;15.528;2023-07-22T05:42:25;99869.25;;;14.62;100.00
12664;BME280;6396;58.490;15.528;2023-07-22T05:44:54;99794.16;;;14.27;100.00
12664;BME280;6396;58.490;15.528;2023-07-22T05:47:21;99679.41;;;13.57;100.00
12664;BME280;6396;58.490;15.528;2023-07-22T05:49:48;99734.66;;;14.14;100.00
12664;BME280;6396;58.490;15.528;2023-07-22T05:52:15;99928.47;;;15.27;100.00
12664;BME280;6396;58.490;15.528;2023-07-22T05:54:42;99926.25;;;15.35;100.00
12664;BME280;6396;58.490;15.528;2023-07-22T05:57:08;99891.56;;;15.37;100.00
12664;BME280;6396;58.490;15.528;2023-07-22T05:59:37;99564.94;;;13.49;100.00
12664;BME280;6396;58.490;15.528;2023-07-22T06:02:05;99720.22;;;14.35;100.00
12664;BME280;6396;58.490;15.528;2023-07-22T06:04:32;99913.28;;;15.60;100.00
12664;BME280;6396;58.490;15.528;2023-07-22T06:06:59;99933.34;;;15.66;100.00
12664;BME280;6396;58.490;15.528;2023-07-22T06:09:25;99862.56;;;15.17;100.00
12664;BME280;6396;58.490;15.528;2023-07-22T06:11:52;99905.97;;;15.80;100.00
12664;BME280;6396;58.490;15.528;2023-07-22T06:14:19;99421.28;;;12.94;100.00
12664;BME280;6396;58.490;15.528;2023-07-22T06:16:47;99856.03;;;15.53;100.00
12664;BME280;6396;58.490;15.528;2023-07-22T06:19:14;99481.34;;;13.26;100.00
12664;BME280;6396;58.490;15.528;2023-07-22T06:21:41;99848.81;;;15.55;100.00
12664;BME280;6396;58.490;15.528;2023-07-22T06:24:08;99906.69;;;16.11;100.00
12664;BME280;6396;58.490;15.528;2023-07-22T06:26:35;99904.34;;;16.21;100.00
12664;BME280;6396;58.490;15.528;2023-07-22T06:29:02;99905.88;;;16.25;100.00
12664;BME280;6396;58.490;15.528;2023-07-22T06:31:29;99860.22;;;15.87;100.00
12664;BME280;6396;58.490;15.528;2023-07-22T06:33:59;99657.81;;;14.87;100.00
12664;BME280;6396;58.490;15.528;2023-07-22T06:36:26;99901.53;;;16.52;100.00
12664;BME280;6396;58.490;15.528;2023-07-22T06:38:53;99901.06;;;16.59;100.00
12664;BME280;6396;58.490;15.528;2023-07-22T06:41:20;99902.31;;;16.68;100.00
12664;BME280;6396;58.490;15.528;2023-07-22T06:43:49;99905.94;;;16.81;100.00
12664;BME280;6396;58.490;15.528;2023-07-22T06:46:16;99743.47;;;15.95;100.00
12664;BME280;6396;58.490;15.528;2023-07-22T06:48:43;99916.59;;;16.95;100.00
12664;BME280;6396;58.490;15.528;2023-07-22T06:51:11;99876.28;;;17.00;100.00
12664;BME280;6396;58.490;15.528;2023-07-22T06:53:38;99899.59;;;17.10;100.00
12664;BME280;6396;58.490;15.528;2023-07-22T06:56:06;99895.56;;;17.17;100.00
12664;BME280;6396;58.490;15.528;2023-07-22T06:58:33;99907.19;;;17.16;100.00
12664;BME280;6396;58.490;15.528;2023-07-22T07:00:59;99898.59;;;17.25;100.00
12664;BME280;6396;58.490;15.528;2023-07-22T07:03:26;99878.56;;;17.32;100.00
12664;BME280;6396;58.490;15.528;2023-07-22T07:05:53;99897.03;;;17.49;100.00
12664;BME280;6396;58.490;15.528;2023-07-22T07:08:22;99895.91;;;17.66;100.00
12664;BME280;6396;58.490;15.528;2023-07-22T07:10:49;99677.06;;;16.61;100.00
12664;BME280;6396;58.490;15.528;2023-07-22T07:13:16;99635.56;;;16.57;100.00
12664;BME280;6396;58.490;15.528;2023-07-22T07:15:47;99878.41;;;18.14;100.00
12664;BME280;6396;58.490;15.528;2023-07-22T07:18:15;99896.03;;;18.79;100.00
12664;BME280;6396;58.490;15.528;2023-07-22T07:20:43;99916.66;;;19.02;100.00
12664;BME280;6396;58.490;15.528;2023-07-22T07:23:10;99924.41;;;19.43;100.00
12664;BME280;6396;58.490;15.528;2023-07-22T07:25:38;99929.00;;;19.41;100.00
12664;BME280;6396;58.490;15.528;2023-07-22T07:28:05;99848.09;;;19.12;100.00
12664;BME280;6396;58.490;15.528;2023-07-22T07:30:32;99911.72;;;19.57;100.00
12664;BME280;6396;58.490;15.528;2023-07-22T07:32:59;99519.16;;;17.33;100.00
12664;BME280;6396;58.490;15.528;2023-07-22T07:35:26;99915.97;;;19.60;100.00
12664;BME280;6396;58.490;15.528;2023-07-22T07:37:52;99860.25;;;19.29;100.00
12664;BME280;6396;58.490;15.528;2023-07-22T07:40:19;99809.38;;;19.05;100.00
12664;BME280;6396;58.490;15.528;2023-07-22T07:42:47;99885.47;;;19.73;100.00
12664;BME280;6396;58.490;15.528;2023-07-22T07:45:14;99926.31;;;20.12;100.00
12664;BME280;6396;58.490;15.528;2023-07-22T07:47:41;99830.00;;;19.86;100.00
12664;BME280;6396;58.490;15.528;2023-07-22T07:50:09;99757.19;;;19.47;100.00
12664;BME280;6396;58.490;15.528;2023-07-22T07:52:35;99896.41;;;20.29;100.00
12664;BME280;6396;58.490;15.528;2023-07-22T07:55:05;99892.88;;;20.28;100.00
12664;BME280;6396;58.490;15.528;2023-07-22T07:57:31;99873.84;;;20.20;100.00
12664;BME280;6396;58.490;15.528;2023-07-22T08:00:00;99618.72;;;18.56;100.00
12664;BME280;6396;58.490;15.528;2023-07-22T08:02:26;99657.00;;;18.56;100.00
12664;BME280;6396;58.490;15.528;2023-07-22T08:04:53;99756.38;;;18.86;100.00
12664;BME280;6396;58.490;15.528;2023-07-22T08:07:20;99853.88;;;19.19;100.00
12664;BME280;6396;58.490;15.528;2023-07-22T08:09:47;99760.03;;;18.49;100.00
12664;BME280;6396;58.490;15.528;2023-07-22T08:12:15;99717.66;;;17.95;100.00
12664;BME280;6396;58.490;15.528;2023-07-22T08:14:42;99924.91;;;18.99;100.00
12664;BME280;6396;58.490;15.528;2023-07-22T08:17:10;99778.88;;;17.98;100.00
12664;BME280;6396;58.490;15.528;2023-07-22T08:19:37;99809.44;;;18.31;100.00
12664;BME280;6396;58.490;15.528;2023-07-22T08:22:04;99779.06;;;18.07;99.87
12664;BME280;6396;58.490;15.528;2023-07-22T08:24:31;99625.88;;;16.95;95.02
12664;BME280;6396;58.490;15.528;2023-07-22T08:26:58;99902.59;;;18.75;97.10
12664;BME280;6396;58.490;15.528;2023-07-22T08:29:25;99879.69;;;18.58;100.00
12664;BME280;6396;58.490;15.528;2023-07-22T08:31:51;99794.16;;;17.96;100.00
12664;BME280;6396;58.490;15.528;2023-07-22T08:34:20;99697.38;;;17.54;100.00
12664;BME280;6396;58.490;15.528;2023-07-22T08:36:46;99845.78;;;18.34;100.00
12664;BME280;6396;58.490;15.528;2023-07-22T08:39:14;99866.03;;;18.50;100.00
12664;BME280;6396;58.490;15.528;2023-07-22T08:41:44;99860.47;;;18.41;100.00
12664;BME280;6396;58.490;15.528;2023-07-22T08:44:17;99722.56;;;17.63;100.00
12664;BME280;6396;58.490;15.528;2023-07-22T08:46:45;99595.78;;;16.93;100.00
12664;BME280;6396;58.490;15.528;2023-07-22T08:49:13;99898.81;;;18.90;100.00
12664;BME280;6396;58.490;15.528;2023-07-22T08:51:44;99855.63;;;18.58;100.00
12664;BME280;6396;58.490;15.528;2023-07-22T08:54:13;99922.59;;;18.95;100.00
12664;BME280;6396;58.490;15.528;2023-07-22T08:56:39;99935.53;;;18.88;100.00
12664;BME280;6396;58.490;15.528;2023-07-22T08:59:07;99884.63;;;18.64;100.00
12664;BME280;6396;58.490;15.528;2023-07-22T09:01:37;99781.44;;;18.12;100.00
12664;BME280;6396;58.490;15.528;2023-07-22T09:04:05;99905.00;;;19.03;100.00
12664;BME280;6396;58.490;15.528;2023-07-22T09:06:32;99751.59;;;18.18;100.00
12664;BME280;6396;58.490;15.528;2023-07-22T09:09:01;99686.13;;;18.00;100.00
12664;BME280;6396;58.490;15.528;2023-07-22T09:11:30;99736.75;;;18.14;100.00
12664;BME280;6396;58.490;15.528;2023-07-22T09:13:57;99766.16;;;18.26;100.00
12664;BME280;6396;58.490;15.528;2023-07-22T09:16:24;99906.56;;;19.18;100.00
12664;BME280;6396;58.490;15.528;2023-07-22T09:18:54;99907.75;;;19.14;100.00
12664;BME280;6396;58.490;15.528;2023-07-22T09:21:21;99836.03;;;18.58;100.00
12664;BME280;6396;58.490;15.528;2023-07-22T09:23:48;99715.75;;;17.71;98.48
12664;BME280;6396;58.490;15.528;2023-07-22T09:26:17;99842.91;;;18.37;100.00
12664;BME280;6396;58.490;15.528;2023-07-22T09:28:48;99727.81;;;17.64;100.00
12664;BME280;6396;58.490;15.528;2023-07-22T09:31:15;99799.50;;;17.96;100.00
12664;BME280;6396;58.490;15.528;2023-07-22T09:33:42;99943.03;;;18.83;100.00
12664;BME280;6396;58.490;15.528;2023-07-22T09:36:10;99788.06;;;18.31;100.00
12664;BME280;6396;58.490;15.528;2023-07-22T09:38:37;99935.13;;;19.66;100.00
12664;BME280;6396;58.490;15.528;2023-07-22T09:41:04;99659.50;;;18.47;100.00
12664;BME280;6396;58.490;15.528;2023-07-22T09:43:36;99895.09;;;20.45;100.00
12664;BME280;6396;58.490;15.528;2023-07-22T09:46:07;99822.78;;;20.22;100.00
12664;BME280;6396;58.490;15.528;2023-07-22T09:48:43;99901.28;;;21.45;100.00
12664;BME280;6396;58.490;15.528;2023-07-22T09:51:12;99754.66;;;21.11;100.00
12664;BME280;6396;58.490;15.528;2023-07-22T09:53:44;99866.81;;;22.34;98.82
12664;BME280;6396;58.490;15.528;2023-07-22T09:56:12;99840.13;;;22.52;100.00
12664;BME280;6396;58.490;15.528;2023-07-22T09:58:40;99825.00;;;22.81;80.58
12664;BME280;6396;58.490;15.528;2023-07-22T10:01:07;99747.59;;;22.73;80.64
12664;BME280;6396;58.490;15.528;2023-07-22T10:03:37;99892.09;;;23.33;80.43
12664;BME280;6396;58.490;15.528;2023-07-22T10:06:05;99749.03;;;22.07;71.76
12664;BME280;6396;58.490;15.528;2023-07-22T10:08:33;99894.59;;;22.55;73.52
12664;BME280;6396;58.490;15.528;2023-07-22T10:11:03;99887.16;;;22.27;86.17
12664;BME280;6396;58.490;15.528;2023-07-22T10:13:32;99879.81;;;21.77;90.38
12664;BME280;6396;58.490;15.528;2023-07-22T10:16:01;99803.59;;;21.15;98.23
12664;BME280;6396;58.490;15.528;2023-07-22T10:18:28;99861.06;;;21.23;94.31
12664;BME280;6396;58.490;15.528;2023-07-22T10:20:57;99581.53;;;19.44;100.00
12664;BME280;6396;58.490;15.528;2023-07-22T10:23:26;99615.72;;;19.41;99.40
12664;BME280;6396;58.490;15.528;2023-07-22T10:25:53;99688.63;;;19.44;97.75
12664;BME280;6396;58.490;15.528;2023-07-22T10:28:21;99890.75;;;20.88;99.47
12664;BME280;6396;58.490;15.528;2023-07-22T10:30:48;99893.53;;;20.98;100.00
12664;BME280;6396;58.490;15.528;2023-07-22T10:33:16;99893.91;;;20.93;100.00
12664;BME280;6396;58.490;15.528;2023-07-22T10:36:01;99641.09;;;19.24;84.66
12664;BME280;6396;58.490;15.528;2023-07-22T10:38:29;99870.69;;;20.37;100.00
12664;BME280;6396;58.490;15.528;2023-07-22T10:40:56;99889.88;;;20.55;100.00
12664;BME280;6396;58.490;15.528;2023-07-22T10:43:24;99893.88;;;20.49;100.00
12664;BME280;6396;58.490;15.528;2023-07-22T10:45:53;99754.25;;;19.50;100.00
12664;BME280;6396;58.490;15.528;2023-07-22T10:48:26;99896.41;;;20.29;95.84
12664;BME280;6396;58.490;15.528;2023-07-22T10:50:55;99769.25;;;19.52;99.61
12664;BME280;6396;58.490;15.528;2023-07-22T10:53:29;99889.41;;;20.15;100.00
12664;BME280;6396;58.490;15.528;2023-07-22T10:56:07;99895.72;;;20.03;100.00
12664;BME280;6396;58.490;15.528;2023-07-22T10:58:58;99886.50;;;19.83;100.00
12664;BME280;6396;58.490;15.528;2023-07-22T11:01:34;99876.28;;;19.54;100.00
12664;BME280;6396;58.490;15.528;2023-07-22T11:04:14;99755.47;;;18.75;100.00
12664;BME280;6396;58.490;15.528;2023-07-22T11:06:54;99740.63;;;18.58;100.00
12664;BME280;6396;58.490;15.528;2023-07-22T11:09:35;99893.69;;;19.36;100.00
12664;BME280;6396;58.490;15.528;2023-07-22T11:12:03;99886.00;;;19.31;100.00
12664;BME280;6396;58.490;15.528;2023-07-22T11:14:32;99886.00;;;19.31;100.00
12664;BME280;6396;58.490;15.528;2023-07-22T11:17:00;99895.72;;;19.32;100.00
12664;BME280;6396;58.490;15.528;2023-07-22T11:19:31;99696.56;;;18.15;100.00
12664;BME280;6396;58.490;15.528;2023-07-22T11:21:58;99888.34;;;19.36;100.00
12664;BME280;6396;58.490;15.528;2023-07-22T11:24:26;99786.91;;;18.84;100.00
12664;BME280;6396;58.490;15.528;2023-07-22T11:26:53;99885.59;;;19.48;100.00
12664;BME280;6396;58.490;15.528;2023-07-22T11:29:21;99875.84;;;19.47;100.00
12664;BME280;6396;58.490;15.528;2023-07-22T11:31:49;99891.44;;;19.77;100.00
12664;BME280;6396;58.490;15.528;2023-07-22T11:34:18;99867.00;;;19.81;100.00
12664;BME280;6396;58.490;15.528;2023-07-22T11:36:47;99888.50;;;20.03;100.00
12664;BME280;6396;58.490;15.528;2023-07-22T11:39:16;99894.03;;;20.13;100.00
12664;BME280;6396;58.490;15.528;2023-07-22T11:41:44;99808.78;;;19.83;100.00
12664;BME280;6396;58.490;15.528;2023-07-22T11:44:12;99887.28;;;20.42;100.00
12664;BME280;6396;58.490;15.528;2023-07-22T11:46:53;99866.53;;;20.22;100.00
12664;BME280;6396;58.490;15.528;2023-07-22T11:49:25;99892.75;;;20.30;90.73
12664;BME280;6396;58.490;15.528;2023-07-22T11:51:56;99881.91;;;20.31;100.00
12664;BME280;6396;58.490;15.528;2023-07-22T11:54:24;99889.09;;;20.31;93.97
12664;BME280;6396;58.490;15.528;2023-07-22T11:56:51;99733.16;;;19.34;99.01
12664;BME280;6396;58.490;15.528;2023-07-22T11:59:32;99890.69;;;20.22;100.00
12664;BME280;6396;58.490;15.528;2023-07-22T12:02:00;99888.72;;;20.24;100.00
12664;BME280;6396;58.490;15.528;2023-07-22T12:04:26;99663.03;;;18.95;94.72
12664;BME280;6396;58.490;15.528;2023-07-22T12:06:55;99881.56;;;20.36;99.38
12664;BME280;6396;58.490;15.528;2023-07-22T12:09:22;99840.94;;;19.83;95.92
12664;BME280;6396;58.490;15.528;2023-07-22T12:11:55;99888.00;;;20.22;97.87
12664;BME280;6396;58.490;15.528;2023-07-22T12:14:22;99909.94;;;20.27;100.00
12664;BME280;6396;58.490;15.528;2023-07-22T12:16:54;99889.31;;;20.28;100.00
12664;BME280;6396;58.490;15.528;2023-07-22T12:19:22;99665.81;;;18.93;100.00
12664;BME280;6396;58.490;15.528;2023-07-22T12:21:48;99888.16;;;20.43;100.00
12664;BME280;6396;58.490;15.528;2023-07-22T12:24:17;99883.50;;;20.56;100.00
12664;BME280;6396;58.490;15.528;2023-07-22T12:26:43;99895.97;;;20.57;100.00
12664;BME280;6396;58.490;15.528;2023-07-22T12:29:10;99607.84;;;19.16;100.00
12664;BME280;6396;58.490;15.528;2023-07-22T12:31:37;99682.06;;;19.59;100.00
12664;BME280;6396;58.490;15.528;2023-07-22T12:34:03;99895.97;;;20.79;99.13
12664;BME280;6396;58.490;15.528;2023-07-22T12:36:30;99782.25;;;19.91;98.95
12664;BME280;6396;58.490;15.528;2023-07-22T12:38:57;99831.56;;;20.35;96.99
12664;BME280;6396;58.490;15.528;2023-07-22T12:41:25;99895.25;;;20.66;84.70
12664;BME280;6396;58.490;15.528;2023-07-22T12:43:52;99892.78;;;20.63;92.77
12664;BME280;6396;58.490;15.528;2023-07-22T12:46:19;99889.13;;;20.53;92.89
12664;BME280;6396;58.490;15.528;2023-07-22T12:48:46;99889.63;;;20.58;92.15
12664;BME280;6396;58.490;15.528;2023-07-22T12:51:12;99871.47;;;20.50;91.55
12664;BME280;6396;58.490;15.528;2023-07-22T12:53:39;99843.63;;;20.40;91.03